Hauptseite
METAR-TAF:

METAR-TAF

Flughäfen :

Altenstadt, Deutschland

Heeresflugplatz Altenstadt

Breite: 47-50N, Länge: 010-52E, Höhe: 739 m

Beobachtung

Neuester Wetterbericht von vor 34 Minuten, um 08:20 UTC
Wind 3 kt aus West/Südwest
Temperatur 2°C
Luftfeuchtigkeit 80%
Luftdruck 1011 hPa
Sichtweite 10 km oder mehr
Durchbrochene Bewölkung in der Höhe von 13000 ft

METAR: ETHA 270820Z 24003KT 9999 BKN130 02/M01 Q1011 BLACKBLU BLU+ TEMPO BLU

Zeit: 09:54 (08:54 UTC)

Prognose

Neuester Wetterbericht von vor 34 Minuten, um 08:20 UTC
Gültige Prognose vom 27 um 09 UTC bis 27 um 18 UTC
Wind 5 kt aus West/Südwest
Sichtweite 10 km oder mehr
Aufgelockert bewölkt in der Höhe von 13000 ft

TAF: ETHA 270820Z 2709/2718 24005KT 9999 NSW SCT130

Wetterbeobachtungen und Prognosen von mehr als 4000 Flughäfen (METAR und TAF Bericht).

Die verfügbaren Stationen werden durch gelbe und rote Markierungen auf der Karte dargestellt.

Führen Sie die Maus auf sie, um den Namen der Station zu sehen.

Darauf klicken, um die Beobachtung von Wetterbeobachtungen und Prognosen zu sehen.

Um die Karte zu ändern : klicken Sie auf den grünen Tasten mit einem schwarzen Kreuz Zum Vergrößern, auf den grünen Button mit einem Gedankenstrich zu verkleinern, oder auf die grünen Pfeile für benachbarte Karten.


METAR-TAF: